SWA3590 KLAS-KRNO
Flight info
| Callsign | SWA3590 |
|---|---|
| Flight time | 0h 54m |
| Altitude | 36000 |
| Route | JOHKR5 KENNO TARVR2 |
| Aircraft | B737/M-SDE2E3FGHIRWXY/LB1 |
Departure
| Time | 2026-05-06 05:22 |
|---|---|
| Airport | Harry Reid International Airport (KLAS) |
Arrival
| Time | 2026-05-06 06:17 |
|---|---|
| Airport | Reno Tahoe International Airport (KRNO) |
| Time | Latitude | Longitude | Altitude | Speed | Heading |
|---|---|---|---|---|---|
| 2026-05-06 04:44 | 36.08088 | -115.14597 | 2187 ft | 0 kts | 254° |
| 2026-05-06 05:11 | 36.08090 | -115.14590 | 2191 ft | 2 kts | 254° |
| 2026-05-06 05:11 | 36.08094 | -115.14572 | 2187 ft | 2 kts | 254° |
| 2026-05-06 05:11 | 36.08098 | -115.14554 | 2188 ft | 2 kts | 253° |
| 2026-05-06 05:11 | 36.08106 | -115.14539 | 2189 ft | 2 kts | 210° |
| 2026-05-06 05:12 | 36.08119 | -115.14533 | 2188 ft | 2 kts | 187° |
| 2026-05-06 05:12 | 36.08134 | -115.14533 | 2188 ft | 2 kts | 163° |
| 2026-05-06 05:12 | 36.08147 | -115.14540 | 2188 ft | 0 kts | 146° |
| 2026-05-06 05:14 | 36.08140 | -115.14534 | 2188 ft | 6 kts | 146° |
| 2026-05-06 05:14 | 36.08064 | -115.14485 | 2188 ft | 19 kts | 163° |
| 2026-05-06 05:14 | 36.07924 | -115.14482 | 2188 ft | 9 kts | 182° |
| 2026-05-06 05:14 | 36.07921 | -115.14482 | 2188 ft | 0 kts | 183° |
| 2026-05-06 05:15 | 36.07899 | -115.14484 | 2188 ft | 8 kts | 184° |
| 2026-05-06 05:16 | 36.07834 | -115.14428 | 2187 ft | 17 kts | 101° |
| 2026-05-06 05:16 | 36.07827 | -115.14255 | 2188 ft | 22 kts | 90° |
| 2026-05-06 05:16 | 36.07828 | -115.14062 | 2191 ft | 23 kts | 89° |
| 2026-05-06 05:16 | 36.07828 | -115.13869 | 2188 ft | 22 kts | 90° |
| 2026-05-06 05:17 | 36.07827 | -115.13744 | 2187 ft | 22 kts | 90° |
| 2026-05-06 05:17 | 36.07829 | -115.13560 | 2188 ft | 21 kts | 90° |
| 2026-05-06 05:17 | 36.07828 | -115.13380 | 2189 ft | 21 kts | 90° |
| 2026-05-06 05:17 | 36.07829 | -115.13207 | 2190 ft | 20 kts | 90° |
| 2026-05-06 05:18 | 36.07828 | -115.13039 | 2187 ft | 19 kts | 90° |
| 2026-05-06 05:18 | 36.07828 | -115.12856 | 2187 ft | 25 kts | 90° |
| 2026-05-06 05:18 | 36.07830 | -115.12611 | 2187 ft | 29 kts | 90° |
| 2026-05-06 05:18 | 36.07828 | -115.12366 | 2187 ft | 28 kts | 90° |
| 2026-05-06 05:19 | 36.07783 | -115.12201 | 2187 ft | 18 kts | 129° |
| 2026-05-06 05:19 | 36.07753 | -115.12155 | 2187 ft | 0 kts | 129° |
| 2026-05-06 05:20 | 36.07713 | -115.12124 | 2192 ft | 15 kts | 171° |
| 2026-05-06 05:20 | 36.07643 | -115.12179 | 2189 ft | 11 kts | 269° |
| 2026-05-06 05:20 | 36.07643 | -115.12209 | 2189 ft | 0 kts | 269° |
| 2026-05-06 05:21 | 36.07643 | -115.12238 | 2188 ft | 17 kts | 269° |
| 2026-05-06 05:21 | 36.07641 | -115.12687 | 2192 ft | 88 kts | 269° |
| 2026-05-06 05:22 | 36.07642 | -115.13705 | 2189 ft | 146 kts | 270° |
| 2026-05-06 05:22 | 36.07651 | -115.15127 | 2432 ft | 175 kts | 269° |
| 2026-05-06 05:22 | 36.07698 | -115.16633 | 3130 ft | 174 kts | 266° |
| 2026-05-06 05:22 | 36.07743 | -115.18134 | 3633 ft | 174 kts | 270° |
| 2026-05-06 05:23 | 36.07753 | -115.19639 | 4337 ft | 179 kts | 265° |
| 2026-05-06 05:23 | 36.07550 | -115.21174 | 4963 ft | 183 kts | 259° |
| 2026-05-06 05:23 | 36.06709 | -115.24179 | 6222 ft | 189 kts | 236° |
| 2026-05-06 05:24 | 36.05924 | -115.25504 | 6823 ft | 192 kts | 237° |
| 2026-05-06 05:24 | 36.05022 | -115.26713 | 7394 ft | 197 kts | 207° |
| 2026-05-06 05:24 | 36.03744 | -115.27307 | 8069 ft | 197 kts | 202° |
| 2026-05-06 05:24 | 36.02435 | -115.27913 | 8680 ft | 205 kts | 201° |
| 2026-05-06 05:25 | 36.01068 | -115.28544 | 9360 ft | 215 kts | 201° |
| 2026-05-06 05:25 | 35.99593 | -115.29223 | 9743 ft | 241 kts | 201° |
| 2026-05-06 05:25 | 35.97977 | -115.30130 | 10031 ft | 267 kts | 207° |
| 2026-05-06 05:25 | 35.96306 | -115.31250 | 10520 ft | 287 kts | 208° |
| 2026-05-06 05:26 | 35.94460 | -115.32493 | 10767 ft | 313 kts | 208° |
| 2026-05-06 05:26 | 35.92508 | -115.33786 | 11472 ft | 322 kts | 208° |
| 2026-05-06 05:26 | 35.90575 | -115.35252 | 12155 ft | 332 kts | 221° |
| 2026-05-06 05:26 | 35.89182 | -115.37505 | 13072 ft | 334 kts | 244° |
| 2026-05-06 05:27 | 35.88525 | -115.40270 | 13825 ft | 342 kts | 265° |
| 2026-05-06 05:27 | 35.88521 | -115.43166 | 14728 ft | 342 kts | 271° |
| 2026-05-06 05:27 | 35.88618 | -115.46144 | 15651 ft | 344 kts | 271° |
| 2026-05-06 05:27 | 35.88713 | -115.49089 | 16369 ft | 352 kts | 270° |
| 2026-05-06 05:28 | 35.88789 | -115.52107 | 17329 ft | 352 kts | 270° |
| 2026-05-06 05:28 | 35.88853 | -115.55148 | 18086 ft | 359 kts | 270° |
| 2026-05-06 05:28 | 35.88912 | -115.58259 | 18763 ft | 365 kts | 270° |
| 2026-05-06 05:28 | 35.88970 | -115.61400 | 19515 ft | 368 kts | 270° |
| 2026-05-06 05:29 | 35.89029 | -115.64574 | 20223 ft | 373 kts | 270° |
| 2026-05-06 05:29 | 35.89089 | -115.67806 | 20848 ft | 380 kts | 270° |
| 2026-05-06 05:29 | 35.89148 | -115.71077 | 21534 ft | 384 kts | 270° |
| 2026-05-06 05:29 | 35.89208 | -115.74390 | 22209 ft | 389 kts | 270° |
| 2026-05-06 05:30 | 35.89268 | -115.77741 | 22860 ft | 394 kts | 270° |
| 2026-05-06 05:30 | 35.89328 | -115.81143 | 23439 ft | 400 kts | 270° |
| 2026-05-06 05:30 | 35.89388 | -115.84592 | 23981 ft | 404 kts | 271° |
| 2026-05-06 05:30 | 35.89447 | -115.88064 | 24597 ft | 405 kts | 270° |
| 2026-05-06 05:31 | 35.89636 | -115.91538 | 25163 ft | 409 kts | 282° |
| 2026-05-06 05:31 | 35.90632 | -115.94827 | 25638 ft | 414 kts | 300° |
| 2026-05-06 05:31 | 35.92410 | -115.97621 | 26203 ft | 416 kts | 314° |
| 2026-05-06 05:31 | 35.94454 | -116.00157 | 26768 ft | 418 kts | 315° |
| 2026-05-06 05:32 | 35.96549 | -116.02673 | 27261 ft | 422 kts | 316° |
| 2026-05-06 05:32 | 35.98665 | -116.05205 | 27748 ft | 426 kts | 316° |
| 2026-05-06 05:32 | 36.00790 | -116.07770 | 28244 ft | 429 kts | 315° |
| 2026-05-06 05:32 | 36.02921 | -116.10367 | 28731 ft | 432 kts | 315° |
| 2026-05-06 05:33 | 36.05059 | -116.12995 | 29186 ft | 435 kts | 315° |
| 2026-05-06 05:33 | 36.07203 | -116.15644 | 29705 ft | 436 kts | 315° |
| 2026-05-06 05:33 | 36.09338 | -116.18290 | 30350 ft | 432 kts | 315° |
| 2026-05-06 05:33 | 36.11448 | -116.20909 | 31028 ft | 427 kts | 315° |
| 2026-05-06 05:34 | 36.13536 | -116.23503 | 31669 ft | 423 kts | 315° |
| 2026-05-06 05:34 | 36.15607 | -116.26077 | 32226 ft | 422 kts | 315° |
| 2026-05-06 05:34 | 36.17676 | -116.28649 | 32690 ft | 422 kts | 315° |
| 2026-05-06 05:34 | 36.19746 | -116.31225 | 33135 ft | 422 kts | 315° |
| 2026-05-06 05:35 | 36.21812 | -116.33799 | 33618 ft | 421 kts | 315° |
| 2026-05-06 05:35 | 36.23878 | -116.36372 | 33869 ft | 423 kts | 315° |
| 2026-05-06 05:35 | 36.28041 | -116.41566 | 33852 ft | 423 kts | 315° |
| 2026-05-06 05:36 | 36.32228 | -116.46606 | 33861 ft | 418 kts | 317° |
| 2026-05-06 05:36 | 36.36459 | -116.51594 | 33871 ft | 424 kts | 317° |
| 2026-05-06 05:37 | 36.40754 | -116.56697 | 33870 ft | 435 kts | 317° |
| 2026-05-06 05:37 | 36.45131 | -116.61912 | 33859 ft | 437 kts | 318° |
| 2026-05-06 05:38 | 36.49612 | -116.67009 | 33854 ft | 436 kts | 320° |
| 2026-05-06 05:38 | 36.54087 | -116.72058 | 33849 ft | 432 kts | 319° |
| 2026-05-06 05:39 | 36.58489 | -116.77073 | 33855 ft | 428 kts | 320° |
| 2026-05-06 05:39 | 36.62881 | -116.82085 | 33859 ft | 428 kts | 320° |
| 2026-05-06 05:40 | 36.67267 | -116.87098 | 33856 ft | 428 kts | 320° |
| 2026-05-06 05:40 | 36.71643 | -116.92107 | 33864 ft | 427 kts | 320° |
| 2026-05-06 05:41 | 36.76386 | -116.96433 | 33891 ft | 421 kts | 335° |
| 2026-05-06 05:41 | 36.81620 | -116.99733 | 33888 ft | 426 kts | 336° |
| 2026-05-06 05:42 | 36.87024 | -117.03110 | 33892 ft | 442 kts | 336° |
| 2026-05-06 05:42 | 36.92579 | -117.06672 | 33893 ft | 455 kts | 335° |
| 2026-05-06 05:43 | 36.98217 | -117.10338 | 33881 ft | 457 kts | 335° |
| 2026-05-06 05:43 | 37.03846 | -117.14012 | 33890 ft | 456 kts | 335° |
| 2026-05-06 05:44 | 37.09457 | -117.17676 | 33894 ft | 453 kts | 336° |
| 2026-05-06 05:44 | 37.15036 | -117.21322 | 33894 ft | 452 kts | 336° |
| 2026-05-06 05:45 | 37.20596 | -117.24961 | 33909 ft | 450 kts | 336° |
| 2026-05-06 05:45 | 37.26090 | -117.28563 | 33913 ft | 448 kts | 336° |
| 2026-05-06 05:46 | 37.31467 | -117.32495 | 33903 ft | 452 kts | 326° |
| 2026-05-06 05:46 | 37.36227 | -117.37670 | 33931 ft | 452 kts | 323° |
| 2026-05-06 05:47 | 37.40937 | -117.42892 | 33915 ft | 450 kts | 324° |
| 2026-05-06 05:47 | 37.45692 | -117.48008 | 33916 ft | 449 kts | 324° |
| 2026-05-06 05:48 | 37.50513 | -117.52959 | 33921 ft | 443 kts | 331° |
| 2026-05-06 05:48 | 37.55708 | -117.57092 | 33923 ft | 441 kts | 333° |
| 2026-05-06 05:49 | 37.60931 | -117.61144 | 33920 ft | 441 kts | 333° |
| 2026-05-06 05:49 | 37.66136 | -117.65227 | 33919 ft | 441 kts | 333° |
| 2026-05-06 05:50 | 37.71328 | -117.69339 | 33921 ft | 440 kts | 333° |
| 2026-05-06 05:50 | 37.76504 | -117.73456 | 33931 ft | 439 kts | 333° |
| 2026-05-06 05:51 | 37.81675 | -117.77577 | 33928 ft | 439 kts | 333° |
| 2026-05-06 05:51 | 37.86840 | -117.81698 | 33945 ft | 439 kts | 333° |
| 2026-05-06 05:52 | 37.92013 | -117.85832 | 33945 ft | 440 kts | 333° |
| 2026-05-06 05:52 | 37.97189 | -117.89976 | 33954 ft | 440 kts | 333° |
| 2026-05-06 05:53 | 38.02354 | -117.94118 | 33957 ft | 439 kts | 333° |
| 2026-05-06 05:53 | 38.07508 | -117.98259 | 33964 ft | 438 kts | 333° |
| 2026-05-06 05:54 | 38.12610 | -118.02364 | 33972 ft | 437 kts | 333° |
| 2026-05-06 05:54 | 38.17737 | -118.06496 | 33988 ft | 436 kts | 333° |
| 2026-05-06 05:55 | 38.22843 | -118.10619 | 33981 ft | 433 kts | 334° |
| 2026-05-06 05:55 | 38.27913 | -118.14719 | 33982 ft | 432 kts | 334° |
| 2026-05-06 05:56 | 38.32977 | -118.18822 | 33992 ft | 431 kts | 334° |
| 2026-05-06 05:56 | 38.38032 | -118.22922 | 33983 ft | 430 kts | 334° |
| 2026-05-06 05:57 | 38.42941 | -118.27328 | 33996 ft | 437 kts | 324° |
| 2026-05-06 05:57 | 38.47327 | -118.32736 | 33774 ft | 444 kts | 322° |
| 2026-05-06 05:58 | 38.49547 | -118.35523 | 33344 ft | 448 kts | 322° |
| 2026-05-06 05:58 | 38.51757 | -118.38294 | 32822 ft | 446 kts | 322° |
| 2026-05-06 05:58 | 38.53978 | -118.41067 | 32363 ft | 446 kts | 322° |
| 2026-05-06 05:58 | 38.56206 | -118.43834 | 31881 ft | 448 kts | 322° |
| 2026-05-06 05:59 | 38.58449 | -118.46612 | 31412 ft | 449 kts | 322° |
| 2026-05-06 05:59 | 38.60694 | -118.49393 | 30937 ft | 451 kts | 322° |
| 2026-05-06 05:59 | 38.62946 | -118.52184 | 30443 ft | 452 kts | 321° |
| 2026-05-06 05:59 | 38.65200 | -118.54981 | 29964 ft | 452 kts | 321° |
| 2026-05-06 06:00 | 38.67462 | -118.57793 | 29400 ft | 454 kts | 321° |
| 2026-05-06 06:00 | 38.69732 | -118.60615 | 28831 ft | 456 kts | 321° |
| 2026-05-06 06:00 | 38.72010 | -118.63452 | 28311 ft | 457 kts | 321° |
| 2026-05-06 06:00 | 38.74297 | -118.66299 | 27745 ft | 460 kts | 321° |
| 2026-05-06 06:01 | 38.76594 | -118.69155 | 27186 ft | 461 kts | 321° |
| 2026-05-06 06:01 | 38.78901 | -118.72022 | 26647 ft | 463 kts | 320° |
| 2026-05-06 06:01 | 38.81216 | -118.74902 | 26090 ft | 464 kts | 320° |
| 2026-05-06 06:01 | 38.83534 | -118.77788 | 25545 ft | 466 kts | 320° |
| 2026-05-06 06:02 | 38.85860 | -118.80689 | 24990 ft | 466 kts | 320° |
| 2026-05-06 06:02 | 38.88178 | -118.83585 | 24441 ft | 461 kts | 320° |
| 2026-05-06 06:02 | 38.90428 | -118.86401 | 23909 ft | 455 kts | 320° |
| 2026-05-06 06:02 | 38.92681 | -118.89224 | 23325 ft | 450 kts | 320° |
| 2026-05-06 06:03 | 38.94913 | -118.92019 | 22728 ft | 447 kts | 320° |
| 2026-05-06 06:03 | 38.97124 | -118.94790 | 22178 ft | 442 kts | 320° |
| 2026-05-06 06:03 | 38.99316 | -118.97539 | 21653 ft | 438 kts | 319° |
| 2026-05-06 06:03 | 39.01491 | -119.00269 | 21142 ft | 435 kts | 319° |
| 2026-05-06 06:04 | 39.03649 | -119.02980 | 20630 ft | 433 kts | 319° |
| 2026-05-06 06:04 | 39.05794 | -119.05677 | 20121 ft | 430 kts | 319° |
| 2026-05-06 06:04 | 39.07930 | -119.08366 | 19618 ft | 428 kts | 319° |
| 2026-05-06 06:04 | 39.10049 | -119.11036 | 19124 ft | 426 kts | 319° |
| 2026-05-06 06:05 | 39.12159 | -119.13698 | 18619 ft | 421 kts | 319° |
| 2026-05-06 06:05 | 39.13556 | -119.15463 | 18281 ft | 413 kts | 319° |
| 2026-05-06 06:05 | 39.15574 | -119.18013 | 17723 ft | 399 kts | 319° |
| 2026-05-06 06:05 | 39.17522 | -119.20475 | 17224 ft | 386 kts | 319° |
| 2026-05-06 06:06 | 39.19408 | -119.22858 | 16738 ft | 374 kts | 319° |
| 2026-05-06 06:06 | 39.21240 | -119.25172 | 16287 ft | 364 kts | 319° |
| 2026-05-06 06:06 | 39.22999 | -119.27397 | 15849 ft | 345 kts | 319° |
| 2026-05-06 06:06 | 39.24668 | -119.29511 | 15451 ft | 328 kts | 319° |
| 2026-05-06 06:07 | 39.26238 | -119.31498 | 15072 ft | 313 kts | 319° |
| 2026-05-06 06:07 | 39.27757 | -119.33422 | 14728 ft | 300 kts | 320° |
| 2026-05-06 06:07 | 39.29222 | -119.35276 | 14390 ft | 293 kts | 320° |
| 2026-05-06 06:07 | 39.30671 | -119.37109 | 14051 ft | 290 kts | 320° |
| 2026-05-06 06:08 | 39.32103 | -119.38924 | 13696 ft | 287 kts | 320° |
| 2026-05-06 06:08 | 39.33519 | -119.40722 | 13330 ft | 284 kts | 320° |
| 2026-05-06 06:08 | 39.34923 | -119.42505 | 12986 ft | 281 kts | 320° |
| 2026-05-06 06:08 | 39.36398 | -119.44127 | 12643 ft | 276 kts | 327° |
| 2026-05-06 06:09 | 39.37953 | -119.45568 | 12323 ft | 276 kts | 328° |
| 2026-05-06 06:09 | 39.39534 | -119.46992 | 12020 ft | 278 kts | 329° |
| 2026-05-06 06:09 | 39.41127 | -119.48437 | 11683 ft | 281 kts | 328° |
| 2026-05-06 06:09 | 39.42716 | -119.49896 | 11362 ft | 279 kts | 328° |
| 2026-05-06 06:10 | 39.44292 | -119.51357 | 11026 ft | 278 kts | 328° |
| 2026-05-06 06:10 | 39.45844 | -119.52805 | 10695 ft | 271 kts | 328° |
| 2026-05-06 06:10 | 39.47340 | -119.54205 | 10384 ft | 260 kts | 328° |
| 2026-05-06 06:10 | 39.48775 | -119.55550 | 10131 ft | 249 kts | 328° |
| 2026-05-06 06:11 | 39.50162 | -119.56850 | 9788 ft | 243 kts | 328° |
| 2026-05-06 06:11 | 39.51508 | -119.58111 | 9484 ft | 235 kts | 328° |
| 2026-05-06 06:11 | 39.52820 | -119.59341 | 9175 ft | 231 kts | 327° |
| 2026-05-06 06:11 | 39.54120 | -119.60558 | 8895 ft | 230 kts | 327° |
| 2026-05-06 06:12 | 39.55418 | -119.61774 | 8611 ft | 231 kts | 326° |
| 2026-05-06 06:12 | 39.56736 | -119.63011 | 8347 ft | 236 kts | 326° |
| 2026-05-06 06:12 | 39.58068 | -119.64262 | 8046 ft | 237 kts | 326° |
| 2026-05-06 06:12 | 39.59398 | -119.65524 | 7727 ft | 237 kts | 323° |
| 2026-05-06 06:13 | 39.60532 | -119.67030 | 7424 ft | 233 kts | 304° |
| 2026-05-06 06:13 | 39.61155 | -119.68913 | 7134 ft | 223 kts | 283° |
| 2026-05-06 06:13 | 39.61258 | -119.70869 | 6871 ft | 214 kts | 266° |
| 2026-05-06 06:13 | 39.60936 | -119.72720 | 6622 ft | 206 kts | 249° |
| 2026-05-06 06:14 | 39.60258 | -119.74281 | 6385 ft | 193 kts | 234° |
| 2026-05-06 06:14 | 39.59355 | -119.75491 | 6109 ft | 181 kts | 217° |
| 2026-05-06 06:14 | 39.58272 | -119.76250 | 5888 ft | 172 kts | 206° |
| 2026-05-06 06:14 | 39.57185 | -119.76755 | 5750 ft | 157 kts | 190° |
| 2026-05-06 06:15 | 39.56121 | -119.76883 | 5524 ft | 152 kts | 185° |
| 2026-05-06 06:15 | 39.55083 | -119.76908 | 5285 ft | 147 kts | 179° |
| 2026-05-06 06:15 | 39.54071 | -119.76914 | 5080 ft | 144 kts | 180° |
| 2026-05-06 06:15 | 39.53064 | -119.76916 | 4863 ft | 146 kts | 179° |
| 2026-05-06 06:16 | 39.52031 | -119.76923 | 4635 ft | 150 kts | 178° |
| 2026-05-06 06:16 | 39.51003 | -119.76924 | 4434 ft | 143 kts | 178° |
| 2026-05-06 06:16 | 39.50099 | -119.76925 | 4418 ft | 113 kts | 179° |
| 2026-05-06 06:16 | 39.49515 | -119.76928 | 4419 ft | 50 kts | 180° |
| 2026-05-06 06:17 | 39.49290 | -119.76998 | 4420 ft | 29 kts | 224° |
| 2026-05-06 06:17 | 39.49278 | -119.77143 | 4417 ft | 17 kts | 327° |
| 2026-05-06 06:17 | 39.49393 | -119.77154 | 4416 ft | 16 kts | 0° |
| 2026-05-06 06:17 | 39.49504 | -119.77154 | 4418 ft | 16 kts | 0° |
| 2026-05-06 06:18 | 39.49645 | -119.77153 | 4416 ft | 25 kts | 0° |
| 2026-05-06 06:18 | 39.49846 | -119.77154 | 4418 ft | 32 kts | 360° |
| 2026-05-06 06:18 | 39.50073 | -119.77153 | 4417 ft | 33 kts | 0° |
| 2026-05-06 06:18 | 39.50287 | -119.77153 | 4422 ft | 22 kts | 0° |
| 2026-05-06 06:19 | 39.50373 | -119.77254 | 4421 ft | 20 kts | 271° |
| 2026-05-06 06:19 | 39.50417 | -119.77380 | 4421 ft | 11 kts | 349° |
| 2026-05-06 06:19 | 39.50443 | -119.77379 | 4421 ft | 0 kts | 1° |
| 2026-05-06 06:27 | 39.50434 | -119.76964 | 4419 ft | 763 kts | 1° |
| 2026-05-06 06:27 | 39.50134 | -119.76936 | 4417 ft | 0 kts | 1° |
| 2026-05-06 06:28 | 39.50423 | -119.77421 | 4421 ft | 0 kts | 1° |
| 2026-05-06 06:31 | 39.48805 | -119.77480 | 5611 ft | 0 kts | 1° |
| 2026-05-06 06:31 | 39.48849 | -119.77483 | 6746 ft | 227 kts | 0° |
| 2026-05-06 06:31 | 39.49502 | -119.77443 | 5359 ft | 307 kts | 3° |
| 2026-05-06 06:31 | 39.50295 | -119.77390 | 4509 ft | 328 kts | 3° |
| 2026-05-06 06:32 | 39.51031 | -119.77340 | 4420 ft | 0 kts | 2° |
| 2026-05-06 06:32 | 39.48378 | -119.77650 | 8057 ft | 90 kts | 3° |
| 2026-05-06 06:32 | 39.49226 | -119.77550 | 5685 ft | 193 kts | 8° |
| 2026-05-06 06:32 | 39.50479 | -119.77411 | 4440 ft | 9 kts | 200° |
| 2026-05-06 06:33 | 39.50260 | -119.77415 | 4429 ft | 239 kts | 178° |
| 2026-05-06 06:33 | 39.49563 | -119.77433 | 6640 ft | 3 kts | 343° |
| 2026-05-06 06:33 | 39.49595 | -119.77510 | 4852 ft | 32 kts | 303° |
| 2026-05-06 06:33 | 39.49357 | -119.77382 | 5793 ft | 0 kts | 303° |
| 2026-05-06 06:34 | 39.47957 | -119.74671 | 26465 ft | 547 kts | 310° |
| 2026-05-06 06:34 | 39.48815 | -119.76328 | 15392 ft | 49 kts | 3° |
| 2026-05-06 06:34 | 39.50202 | -119.77431 | 5783 ft | 313 kts | 349° |
| 2026-05-06 06:34 | 39.50601 | -119.77409 | 4849 ft | 0 kts | 354° |